Time;durP1;ratioP1;P1;durP2;ratioP2;P2;SDS_P1;SDS_P2;PMS_P1;PMS_P2;Temp;Humidity;BMP_temperature;BMP_pressure;BME280_temperature;BME280_humidity;BME280_pressure;Samples;Min_cycle;Max_cycle;Signal;HPM_P1;HPM_P2
2021/10/06 00:01:50;;;;;;;5.15;1.55;;;12.80;99.90;;;;;;4975911;28;20530;-89
2021/10/06 00:04:16;;;;;;;4.38;1.00;;;12.60;99.90;;;;;;4958900;28;20034;-89
2021/10/06 00:06:41;;;;;;;2.40;0.82;;;12.60;99.90;;;;;;4959232;28;20023;-88
2021/10/06 00:09:08;;;;;;;2.38;1.17;;;12.70;99.90;;;;;;4958684;28;20385;-89
2021/10/06 00:11:35;;;;;;;3.65;0.70;;;12.80;99.90;;;;;;4975938;28;20058;-89
2021/10/06 00:14:00;;;;;;;7.47;0.95;;;12.60;99.90;;;;;;4959546;28;20030;-89
2021/10/06 00:16:27;;;;;;;4.95;1.02;;;12.40;99.90;;;;;;4958388;28;20437;-89
2021/10/06 00:18:53;;;;;;;2.28;0.90;;;12.50;99.90;;;;;;4954780;29;20138;-89
2021/10/06 00:21:19;;;;;;;3.65;0.70;;;12.70;99.90;;;;;;4954536;29;20031;-89
2021/10/06 00:23:45;;;;;;;2.40;0.73;;;12.80;99.90;;;;;;4955544;29;20027;-90
2021/10/06 00:26:10;;;;;;;5.38;1.15;;;12.80;99.90;;;;;;4955367;29;20023;-88
2021/10/06 00:28:37;;;;;;;3.30;0.85;;;12.90;99.90;;;;;;4955178;28;20020;-89
2021/10/06 00:31:03;;;;;;;1.98;0.60;;;12.90;99.90;;;;;;4955279;29;20023;-89
2021/10/06 00:33:29;;;;;;;3.83;0.77;;;12.70;99.90;;;;;;4955398;29;20039;-89
2021/10/06 00:35:56;;;;;;;2.13;0.77;;;12.60;99.90;;;;;;4956122;29;20027;-89
2021/10/06 00:38:22;;;;;;;4.55;0.90;;;12.70;99.90;;;;;;4946177;29;20030;-88
2021/10/06 00:40:49;;;;;;;6.22;0.88;;;12.60;99.90;;;;;;4975612;29;20027;-90
2021/10/06 00:43:15;;;;;;;3.00;0.70;;;12.70;99.90;;;;;;4971700;29;20027;-89
2021/10/06 00:45:41;;;;;;;1.67;0.55;;;12.60;99.90;;;;;;4957794;29;20073;-90
2021/10/06 00:48:07;;;;;;;2.92;0.73;;;12.50;99.90;;;;;;4957330;29;20027;-90
2021/10/06 00:50:32;;;;;;;4.53;0.80;;;12.60;99.90;;;;;;4954692;29;20483;-89
2021/10/06 00:52:58;;;;;;;2.28;0.63;;;12.60;99.90;;;;;;4954726;29;20043;-89
2021/10/06 00:55:24;;;;;;;2.50;0.63;;;12.60;99.90;;;;;;4954975;29;20034;-89
2021/10/06 00:57:50;;;;;;;5.30;0.60;;;12.40;99.90;;;;;;4954301;29;20114;-88
2021/10/06 01:00:16;;;;;;;4.32;0.90;;;12.50;99.90;;;;;;4956102;29;20031;-89
2021/10/06 01:02:42;;;;;;;3.47;0.70;;;12.00;99.90;;;;;;4955686;29;20495;-88
2021/10/06 01:05:09;;;;;;;3.58;0.70;;;11.90;99.90;;;;;;4954454;29;20023;-88
2021/10/06 01:07:35;;;;;;;3.83;0.85;;;11.90;99.90;;;;;;4954971;29;20055;-90
2021/10/06 01:10:03;;;;;;;5.55;0.88;;;11.90;99.90;;;;;;4954841;29;20038;-88
2021/10/06 01:12:29;;;;;;;5.07;0.98;;;12.00;99.90;;;;;;4954691;29;20047;-89
2021/10/06 01:14:55;;;;;;;5.32;0.70;;;12.00;99.90;;;;;;4955049;29;20027;-88
2021/10/06 01:17:21;;;;;;;5.07;0.73;;;12.10;99.90;;;;;;4954451;29;20031;-89
2021/10/06 01:19:47;;;;;;;1.75;0.50;;;12.10;99.90;;;;;;4954001;29;20055;-89
2021/10/06 01:22:15;;;;;;;1.45;0.55;;;12.20;99.90;;;;;;4954025;29;20081;-88
2021/10/06 01:24:41;;;;;;;2.80;0.63;;;12.30;99.90;;;;;;4955425;29;20110;-89
2021/10/06 01:27:06;;;;;;;3.55;0.80;;;12.20;99.90;;;;;;4954324;29;20038;-88
2021/10/06 01:29:32;;;;;;;5.07;0.75;;;12.10;99.90;;;;;;4954149;29;20027;-89
2021/10/06 01:31:58;;;;;;;3.25;0.70;;;12.00;99.90;;;;;;4954362;29;20028;-89
2021/10/06 01:34:24;;;;;;;3.47;0.82;;;11.90;99.90;;;;;;4955479;29;20036;-89
2021/10/06 01:36:53;;;;;;;3.38;0.60;;;11.80;99.90;;;;;;4954140;29;20059;-91
2021/10/06 01:39:20;;;;;;;2.97;0.80;;;11.70;99.90;;;;;;4954028;28;20117;-88
2021/10/06 01:41:47;;;;;;;3.08;0.60;;;11.60;99.90;;;;;;4956701;28;20075;-89
2021/10/06 01:44:17;;;;;;;2.78;0.70;;;11.60;99.90;;;;;;4957408;29;20027;-88
2021/10/06 01:46:44;;;;;;;5.72;0.50;;;11.50;99.90;;;;;;4957351;29;20027;-90
2021/10/06 01:49:11;;;;;;;2.58;0.50;;;11.50;99.90;;;;;;4957467;29;20038;-90
2021/10/06 01:51:37;;;;;;;3.83;0.68;;;11.50;99.90;;;;;;4957258;29;20069;-89
2021/10/06 01:54:06;;;;;;;2.33;0.50;;;11.60;99.90;;;;;;4957310;29;20061;-90
2021/10/06 01:56:32;;;;;;;2.92;0.70;;;11.70;99.90;;;;;;4957358;29;20082;-90
2021/10/06 01:58:58;;;;;;;4.10;0.90;;;11.70;99.90;;;;;;4957121;29;20023;-88
2021/10/06 02:01:24;;;;;;;2.25;0.68;;;11.60;99.90;;;;;;4957148;29;20027;-88
2021/10/06 02:03:50;;;;;;;2.35;0.60;;;11.50;99.90;;;;;;4957317;29;20023;-90
2021/10/06 02:06:16;;;;;;;2.33;0.70;;;11.70;99.90;;;;;;4957138;29;20023;-89
2021/10/06 02:08:42;;;;;;;2.47;0.70;;;11.70;99.90;;;;;;4956915;29;20023;-88
2021/10/06 02:11:07;;;;;;;4.70;0.90;;;11.50;99.90;;;;;;4958152;29;20027;-88
2021/10/06 02:13:33;;;;;;;3.85;0.80;;;11.50;99.90;;;;;;4956930;29;20086;-89
2021/10/06 02:15:59;;;;;;;4.35;0.82;;;11.70;99.90;;;;;;4957208;29;20027;-89
2021/10/06 02:18:25;;;;;;;4.88;0.80;;;11.60;99.90;;;;;;4959399;28;20043;-89
2021/10/06 02:20:51;;;;;;;3.90;0.98;;;11.50;99.90;;;;;;4959838;28;20041;-89
2021/10/06 02:23:16;;;;;;;4.68;0.70;;;11.60;99.90;;;;;;4959706;28;20486;-89
2021/10/06 02:25:42;;;;;;;2.90;1.17;;;11.40;99.90;;;;;;4977332;28;20061;-90
2021/10/06 02:28:08;;;;;;;5.88;1.17;;;11.40;99.90;;;;;;4959962;28;20019;-89
2021/10/06 02:30:35;;;;;;;4.68;0.82;;;11.50;99.90;;;;;;4959686;28;20456;-89
2021/10/06 02:33:01;;;;;;;3.50;0.85;;;11.40;99.90;;;;;;4960392;28;20054;-89
2021/10/06 02:35:27;;;;;;;2.88;0.65;;;11.50;99.90;;;;;;4959625;28;20027;-89
2021/10/06 02:37:53;;;;;;;1.63;0.70;;;11.50;99.90;;;;;;4960248;28;20034;-89
2021/10/06 02:40:19;;;;;;;4.10;0.60;;;11.50;99.90;;;;;;4976978;28;20395;-89
2021/10/06 02:42:49;;;;;;;9.82;0.80;;;11.60;99.90;;;;;;4960144;28;20037;-88
2021/10/06 02:45:16;;;;;;;3.85;0.93;;;11.80;99.90;;;;;;4959500;28;20031;-89
2021/10/06 02:47:42;;;;;;;2.47;0.65;;;11.70;99.90;;;;;;4959619;28;20027;-89
2021/10/06 02:50:11;;;;;;;2.40;0.65;;;11.70;99.90;;;;;;4959903;28;20143;-90
2021/10/06 02:52:37;;;;;;;1.85;0.80;;;11.30;99.90;;;;;;4979985;28;20026;-89
2021/10/06 02:55:04;;;;;;;1.58;0.60;;;11.20;99.90;;;;;;4978682;28;20037;-90
2021/10/06 02:57:30;;;;;;;2.97;0.80;;;11.10;99.90;;;;;;4994614;28;20081;-90
2021/10/06 02:59:55;;;;;;;6.22;1.23;;;11.00;99.90;;;;;;4962952;28;20487;-89
2021/10/06 03:02:21;;;;;;;3.72;0.50;;;10.90;99.90;;;;;;4960883;28;20498;-89
2021/10/06 03:04:47;;;;;;;2.17;0.82;;;10.80;99.90;;;;;;4959790;28;20022;-88
2021/10/06 03:07:13;;;;;;;5.75;0.90;;;10.80;99.90;;;;;;4959373;28;20387;-89
2021/10/06 03:09:39;;;;;;;4.93;0.70;;;10.70;99.90;;;;;;4959609;28;20482;-89
2021/10/06 03:12:04;;;;;;;2.97;0.70;;;10.60;99.90;;;;;;4959253;28;20126;-90
2021/10/06 03:14:30;;;;;;;2.97;0.70;;;10.80;99.90;;;;;;4959128;28;20118;-89
2021/10/06 03:16:56;;;;;;;2.30;0.73;;;10.70;99.90;;;;;;4958903;28;20026;-89
2021/10/06 03:19:22;;;;;;;6.07;0.82;;;10.70;99.90;;;;;;4955369;29;20055;-88
2021/10/06 03:21:48;;;;;;;1.42;0.60;;;11.00;99.90;;;;;;4955718;29;20475;-88
2021/10/06 03:24:13;;;;;;;1.38;0.70;;;10.80;99.90;;;;;;4956909;29;20082;-89
2021/10/06 03:26:39;;;;;;;2.20;0.70;;;10.90;99.90;;;;;;4956484;29;20023;-89
2021/10/06 03:29:05;;;;;;;5.20;0.60;;;10.90;99.90;;;;;;4956994;29;20356;-88
2021/10/06 03:31:30;;;;;;;3.50;0.50;;;11.20;99.90;;;;;;4956128;29;20061;-88
2021/10/06 03:33:59;;;;;;;4.20;0.73;;;11.40;99.90;;;;;;4955418;29;20443;-88
2021/10/06 03:36:26;;;;;;;1.98;0.70;;;11.40;99.90;;;;;;4955573;29;20031;-88
2021/10/06 03:38:52;;;;;;;3.65;0.90;;;11.40;99.90;;;;;;4955382;28;20090;-89
2021/10/06 03:41:19;;;;;;;2.75;0.60;;;11.50;99.90;;;;;;4955383;29;20024;-88
2021/10/06 03:43:44;;;;;;;4.70;0.80;;;11.60;99.90;;;;;;4955401;29;20463;-90
2021/10/06 03:46:10;;;;;;;4.95;0.73;;;11.60;99.90;;;;;;4955269;29;20058;-89
2021/10/06 03:48:36;;;;;;;4.20;0.77;;;11.30;99.90;;;;;;4956353;29;20109;-89
2021/10/06 03:51:01;;;;;;;4.25;0.88;;;11.10;99.90;;;;;;4955601;29;20028;-89
2021/10/06 03:53:27;;;;;;;3.80;0.57;;;10.80;99.90;;;;;;4956340;29;20561;-89
2021/10/06 03:55:53;;;;;;;2.25;0.60;;;10.70;99.90;;;;;;4955206;29;20103;-90
2021/10/06 03:58:18;;;;;;;2.88;0.60;;;10.40;99.90;;;;;;4954965;29;20023;-89
2021/10/06 04:00:44;;;;;;;2.95;0.75;;;10.50;99.90;;;;;;4954860;29;20035;-88
2021/10/06 04:03:13;;;;;;;3.85;0.73;;;10.70;99.90;;;;;;4955204;29;20030;-89
2021/10/06 04:05:40;;;;;;;2.10;0.73;;;10.50;99.90;;;;;;4954484;29;20030;-90
2021/10/06 04:08:06;;;;;;;3.17;0.50;;;10.50;99.90;;;;;;4954854;29;20479;-88
2021/10/06 04:10:33;;;;;;;1.48;0.45;;;10.30;99.90;;;;;;4954863;29;20055;-88
2021/10/06 04:12:59;;;;;;;3.50;0.80;;;10.30;99.90;;;;;;4954683;29;20070;-89
2021/10/06 04:15:24;;;;;;;5.80;0.80;;;10.20;99.90;;;;;;4955060;29;20058;-88
2021/10/06 04:17:50;;;;;;;5.18;0.70;;;10.10;99.90;;;;;;4955882;29;20031;-89
2021/10/06 04:20:16;;;;;;;2.08;0.60;;;10.20;99.90;;;;;;4954316;29;20059;-89
2021/10/06 04:22:42;;;;;;;3.05;0.63;;;10.30;99.90;;;;;;4954472;29;20061;-88
2021/10/06 04:25:08;;;;;;;2.03;0.68;;;10.20;99.90;;;;;;4954621;29;20030;-88
2021/10/06 04:27:34;;;;;;;3.97;0.70;;;10.10;99.90;;;;;;4955748;29;20038;-89
2021/10/06 04:30:00;;;;;;;1.38;0.50;;;10.10;99.90;;;;;;4954777;29;20451;-88
2021/10/06 04:32:26;;;;;;;2.83;0.60;;;10.40;99.90;;;;;;4954681;29;20138;-89
2021/10/06 04:34:52;;;;;;;3.17;0.55;;;10.70;99.90;;;;;;4954744;29;20027;-89
2021/10/06 04:37:17;;;;;;;5.03;0.80;;;11.00;99.90;;;;;;4954748;29;20390;-89
2021/10/06 04:39:43;;;;;;;3.88;0.80;;;10.80;99.90;;;;;;4955803;28;20141;-88
2021/10/06 04:42:09;;;;;;;1.20;0.40;;;10.90;99.90;;;;;;4956173;29;20019;-89
2021/10/06 04:44:35;;;;;;;1.90;0.60;;;10.90;99.90;;;;;;4954453;29;20066;-88
2021/10/06 04:47:00;;;;;;;2.20;0.50;;;11.10;99.90;;;;;;4954574;29;20083;-89
2021/10/06 04:49:26;;;;;;;3.00;0.70;;;11.10;99.90;;;;;;4954825;29;20126;-88
2021/10/06 04:51:51;;;;;;;2.90;0.70;;;11.00;99.90;;;;;;4954584;29;20027;-88
2021/10/06 04:54:17;;;;;;;2.95;0.60;;;11.10;99.90;;;;;;4954679;29;20023;-89
2021/10/06 04:56:43;;;;;;;2.67;0.60;;;11.10;99.90;;;;;;4954447;29;20078;-89
2021/10/06 04:59:09;;;;;;;1.73;0.68;;;11.00;99.90;;;;;;4954340;29;20487;-90
2021/10/06 05:01:36;;;;;;;2.42;0.80;;;11.20;99.90;;;;;;4955128;29;20546;-88
2021/10/06 05:04:01;;;;;;;2.67;0.90;;;11.20;99.90;;;;;;4954907;29;20023;-89
2021/10/06 05:06:28;;;;;;;4.10;0.60;;;11.20;99.90;;;;;;4955626;29;20046;-89
2021/10/06 05:08:53;;;;;;;3.05;0.57;;;11.20;99.90;;;;;;4962583;29;20034;-88
2021/10/06 05:11:22;;;;;;;3.47;0.70;;;11.10;99.90;;;;;;4974418;29;20098;-89
2021/10/06 05:13:48;;;;;;;3.75;0.90;;;10.80;99.90;;;;;;4969776;29;20030;-88
2021/10/06 05:16:14;;;;;;;4.38;0.98;;;10.80;99.90;;;;;;4958238;28;20042;-89
2021/10/06 05:18:39;;;;;;;3.20;0.88;;;10.80;99.90;;;;;;4960237;29;20048;-90
2021/10/06 05:21:05;;;;;;;3.33;0.68;;;10.60;99.90;;;;;;4960041;29;20031;-89
2021/10/06 05:23:31;;;;;;;3.17;0.50;;;10.60;99.90;;;;;;4958276;29;20388;-89
2021/10/06 05:25:56;;;;;;;3.20;0.80;;;10.60;99.90;;;;;;4958323;29;20483;-90
2021/10/06 05:28:22;;;;;;;2.47;0.80;;;10.60;99.90;;;;;;4957943;29;20475;-90
2021/10/06 05:30:48;;;;;;;5.10;0.85;;;10.40;99.90;;;;;;4958431;29;20190;-89
2021/10/06 05:33:14;;;;;;;3.33;0.75;;;10.50;99.90;;;;;;4957910;29;20035;-89
2021/10/06 05:35:40;;;;;;;1.25;0.80;;;10.40;99.90;;;;;;4959221;29;20042;-89
2021/10/06 05:38:06;;;;;;;3.00;0.80;;;10.50;99.90;;;;;;4957880;28;20023;-89
2021/10/06 05:40:32;;;;;;;3.75;1.33;;;10.50;99.90;;;;;;4957885;29;20038;-90
2021/10/06 05:42:58;;;;;;;1.90;1.10;;;10.40;99.90;;;;;;4958960;29;20020;-90
2021/10/06 05:45:25;;;;;;;4.03;1.30;;;10.40;99.90;;;;;;4959024;29;20030;-90
2021/10/06 05:47:50;;;;;;;2.03;0.77;;;10.40;99.90;;;;;;4957718;29;20023;-91
2021/10/06 05:50:17;;;;;;;3.45;0.90;;;10.50;99.90;;;;;;4957574;29;20090;-90
2021/10/06 05:52:43;;;;;;;1.92;0.90;;;10.50;99.90;;;;;;4957888;29;20063;-89
2021/10/06 05:55:09;;;;;;;2.35;0.75;;;10.40;99.90;;;;;;4958692;29;20023;-89
2021/10/06 05:57:34;;;;;;;1.63;0.77;;;10.50;99.90;;;;;;4957659;29;20024;-91
2021/10/06 06:00:00;;;;;;;5.43;0.80;;;10.70;99.90;;;;;;4957383;29;20094;-89
2021/10/06 06:02:26;;;;;;;6.22;0.95;;;10.60;99.90;;;;;;4957595;29;20031;-90
2021/10/06 06:04:51;;;;;;;4.57;0.80;;;10.50;99.90;;;;;;4957508;29;20020;-89
2021/10/06 06:07:17;;;;;;;6.60;1.30;;;10.60;99.90;;;;;;4957388;29;20117;-89
2021/10/06 06:09:43;;;;;;;2.05;0.73;;;10.70;99.90;;;;;;4957699;29;20114;-90
2021/10/06 06:12:09;;;;;;;1.92;0.63;;;10.70;99.90;;;;;;4957202;29;20119;-90
2021/10/06 06:14:40;;;;;;;4.10;0.90;;;10.70;99.90;;;;;;4957267;29;20027;-88
2021/10/06 06:17:07;;;;;;;4.32;0.80;;;10.60;99.90;;;;;;4956916;29;20035;-89
2021/10/06 06:19:33;;;;;;;4.65;0.82;;;10.60;99.90;;;;;;4956829;29;20048;-87
2021/10/06 06:21:59;;;;;;;5.35;1.00;;;10.50;99.90;;;;;;4956918;29;20031;-89
2021/10/06 06:24:26;;;;;;;5.32;1.05;;;10.50;99.90;;;;;;4957218;29;20023;-88
2021/10/06 06:26:53;;;;;;;3.58;0.80;;;10.60;99.90;;;;;;4956431;28;20030;-89
2021/10/06 06:29:20;;;;;;;5.68;0.90;;;10.90;99.90;;;;;;4956999;29;20059;-87
2021/10/06 06:31:46;;;;;;;5.47;0.68;;;11.00;99.90;;;;;;4957955;28;20042;-89
2021/10/06 06:34:11;;;;;;;5.18;1.20;;;11.20;99.90;;;;;;4956806;29;20417;-88
2021/10/06 06:36:37;;;;;;;4.07;1.00;;;11.30;99.90;;;;;;4956641;29;20031;-89
2021/10/06 06:39:04;;;;;;;3.60;0.90;;;11.40;99.90;;;;;;4956805;28;20119;-88
2021/10/06 06:41:30;;;;;;;4.22;1.08;;;11.60;99.90;;;;;;4956268;29;20015;-88
2021/10/06 06:43:55;;;;;;;3.00;0.88;;;11.50;99.90;;;;;;4956329;29;20027;-89
2021/10/06 06:46:21;;;;;;;2.60;0.90;;;11.60;99.90;;;;;;4956370;29;20019;-89
2021/10/06 06:48:47;;;;;;;3.63;1.10;;;11.50;99.90;;;;;;4958068;29;20027;-89
2021/10/06 06:51:13;;;;;;;5.07;1.27;;;11.70;99.90;;;;;;4956322;29;20159;-88
2021/10/06 06:53:39;;;;;;;4.53;1.10;;;11.60;99.90;;;;;;4956179;29;20024;-89
2021/10/06 06:56:04;;;;;;;7.18;1.13;;;12.00;99.90;;;;;;4956345;29;20423;-88
2021/10/06 06:58:30;;;;;;;4.18;1.02;;;12.20;99.90;;;;;;4956659;29;20027;-89
2021/10/06 07:00:56;;;;;;;5.15;1.00;;;12.40;99.90;;;;;;4956495;29;20023;-89
2021/10/06 07:03:21;;;;;;;3.92;1.00;;;12.30;99.90;;;;;;4956395;29;20483;-89
2021/10/06 07:05:48;;;;;;;3.15;0.90;;;12.10;99.90;;;;;;4956309;29;20110;-87
2021/10/06 07:08:14;;;;;;;7.55;1.17;;;12.10;99.90;;;;;;4957011;29;20027;-87
2021/10/06 07:10:40;;;;;;;5.05;0.93;;;11.90;99.90;;;;;;4956004;29;20115;-90
2021/10/06 07:13:06;;;;;;;9.45;1.10;;;11.90;99.90;;;;;;4956362;29;20031;-88
2021/10/06 07:15:32;;;;;;;4.15;1.15;;;12.00;99.90;;;;;;4955955;29;20027;-88
2021/10/06 07:17:58;;;;;;;3.92;1.00;;;12.30;99.90;;;;;;4956269;29;20114;-89
2021/10/06 07:20:25;;;;;;;8.90;1.50;;;12.50;99.90;;;;;;4956787;29;20110;-89
2021/10/06 07:22:51;;;;;;;3.85;0.80;;;12.60;99.90;;;;;;4957508;29;20023;-90
2021/10/06 07:25:18;;;;;;;4.95;1.30;;;12.70;99.90;;;;;;4970039;29;20019;-91
2021/10/06 07:27:44;;;;;;;5.93;2.47;;;12.70;99.90;;;;;;4978510;29;20035;-88
2021/10/06 07:30:11;;;;;;;4.72;1.38;;;12.70;99.90;;;;;;4972434;29;20037;-89
2021/10/06 07:32:37;;;;;;;9.18;1.35;;;12.70;99.90;;;;;;4960732;29;20019;-90
2021/10/06 07:35:04;;;;;;;5.38;1.08;;;12.80;99.90;;;;;;4961703;29;20019;-89
2021/10/06 07:37:31;;;;;;;7.65;0.98;;;13.00;99.90;;;;;;4959918;29;20028;-90
2021/10/06 07:39:57;;;;;;;8.90;1.20;;;13.00;99.90;;;;;;4957365;28;20071;-91
2021/10/06 07:42:22;;;;;;;5.03;1.02;;;12.80;99.90;;;;;;4955619;29;20058;-88
2021/10/06 07:44:48;;;;;;;6.93;1.30;;;13.00;99.90;;;;;;4957019;29;20023;-88
2021/10/06 07:47:14;;;;;;;5.68;1.10;;;13.10;99.90;;;;;;4956224;29;20110;-88
2021/10/06 07:49:41;;;;;;;4.35;0.88;;;13.40;99.90;;;;;;4940401;29;20038;-88
2021/10/06 07:52:07;;;;;;;8.25;1.40;;;13.50;99.90;;;;;;4955585;29;20117;-89
2021/10/06 07:54:33;;;;;;;7.13;1.15;;;13.70;99.90;;;;;;4955685;29;20458;-89
2021/10/06 07:56:59;;;;;;;5.15;0.98;;;13.60;99.90;;;;;;4957303;29;20031;-89
2021/10/06 07:59:25;;;;;;;8.18;1.17;;;13.40;99.90;;;;;;4957551;29;20082;-89
2021/10/06 08:01:51;;;;;;;5.70;1.17;;;13.50;99.90;;;;;;4960041;29;20034;-90
2021/10/06 08:04:16;;;;;;;3.97;0.85;;;13.20;99.90;;;;;;4956385;29;20110;-88
2021/10/06 08:06:42;;;;;;;5.38;1.00;;;12.70;99.90;;;;;;4962187;29;20058;-89
2021/10/06 08:09:08;;;;;;;4.20;1.00;;;12.50;99.90;;;;;;4963080;29;20032;-91
2021/10/06 08:11:34;;;;;;;4.97;0.82;;;12.90;99.90;;;;;;4960560;29;20023;-91
2021/10/06 08:14:00;;;;;;;5.88;1.10;;;13.30;99.90;;;;;;4961553;29;20398;-92
2021/10/06 08:16:26;;;;;;;6.47;1.08;;;13.10;99.90;;;;;;4963962;29;20114;-93
2021/10/06 08:18:52;;;;;;;4.35;0.95;;;12.90;99.90;;;;;;4959338;29;20043;-90
2021/10/06 08:21:18;;;;;;;3.33;0.80;;;12.80;99.90;;;;;;4959402;29;20024;-89
2021/10/06 08:23:44;;;;;;;4.47;0.80;;;12.60;99.90;;;;;;4957252;29;20114;-88
2021/10/06 08:26:10;;;;;;;5.88;1.00;;;12.50;99.90;;;;;;4960151;29;20055;-89
2021/10/06 08:28:36;;;;;;;5.60;0.80;;;12.50;99.90;;;;;;4958908;29;20019;-89
2021/10/06 08:31:02;;;;;;;2.97;0.70;;;12.60;99.90;;;;;;4957813;29;20170;-88
2021/10/06 08:33:28;;;;;;;6.72;1.00;;;12.70;99.90;;;;;;4956393;29;20034;-90
2021/10/06 08:35:54;;;;;;;8.38;1.20;;;12.80;99.90;;;;;;4956593;29;20027;-89
2021/10/06 08:38:20;;;;;;;3.15;1.00;;;12.70;99.90;;;;;;4955669;28;20031;-90
2021/10/06 08:40:46;;;;;;;5.72;1.85;;;12.50;99.90;;;;;;4958261;29;20023;-92
2021/10/06 08:43:13;;;;;;;13.95;1.63;;;12.60;99.90;;;;;;4957016;29;20471;-91
2021/10/06 08:45:39;;;;;;;7.50;0.98;;;12.60;99.90;;;;;;4959271;29;20067;-93
2021/10/06 08:48:09;;;;;;;7.07;1.00;;;12.50;99.90;;;;;;4957530;29;20055;-95
2021/10/06 08:50:37;;;;;;;5.38;0.98;;;12.20;99.90;;;;;;4958697;28;20027;-94
2021/10/06 08:53:03;;;;;;;3.70;1.05;;;12.30;99.90;;;;;;4957829;29;20349;-91
2021/10/06 08:55:29;;;;;;;5.38;0.70;;;12.20;99.90;;;;;;4962516;29;20094;-85
2021/10/06 08:58:00;;;;;;;6.03;1.08;;;12.00;99.90;;;;;;4956501;29;20491;-91
2021/10/06 09:00:26;;;;;;;8.38;1.60;;;12.70;99.90;;;;;;4959132;28;20067;-91
2021/10/06 09:02:53;;;;;;;8.35;1.17;;;12.90;99.90;;;;;;4959382;29;20483;-95
2021/10/06 09:05:24;;;;;;;8.55;1.52;;;12.80;99.90;;;;;;4959960;29;20035;-96
2021/10/06 09:07:57;;;;;;;5.28;1.08;;;13.10;99.90;;;;;;4959886;29;20033;-93
2021/10/06 09:10:24;;;;;;;4.82;0.73;;;13.40;99.90;;;;;;4957291;29;20024;-93
2021/10/06 09:13:07;;;;;;;2.38;0.85;;;13.70;99.90;;;;;;4955636;29;20399;-93
2021/10/06 09:15:50;;;;;;;4.38;0.98;;;13.90;99.90;;;;;;4955482;29;20492;-93
2021/10/06 09:18:18;;;;;;;5.63;1.02;;;14.30;99.90;;;;;;4955745;29;20059;-90
2021/10/06 09:20:44;;;;;;;7.28;1.33;;;15.20;99.90;;;;;;4956825;29;20055;-93
2021/10/06 09:23:12;;;;;;;5.47;1.27;;;15.10;99.90;;;;;;4957586;29;20027;-93
2021/10/06 09:26:01;;;;;;;5.53;1.15;;;15.30;99.90;;;;;;4958732;29;20023;-93
2021/10/06 09:28:35;;;;;;;6.15;0.90;;;15.00;99.90;;;;;;4956314;29;20024;-95
2021/10/06 09:31:07;;;;;;;5.22;1.10;;;15.80;99.90;;;;;;4956952;29;20428;-93
2021/10/06 09:33:49;;;;;;;3.38;0.80;;;15.40;99.90;;;;;;4956157;29;20035;-93
2021/10/06 09:36:19;;;;;;;4.07;0.75;;;14.50;99.90;;;;;;4965257;29;20042;-95
2021/10/06 09:38:52;;;;;;;4.97;1.00;;;14.20;99.90;;;;;;4969643;28;20023;-92
2021/10/06 09:41:34;;;;;;;2.88;0.75;;;13.90;99.90;;;;;;4974383;29;20050;-92
2021/10/06 09:44:06;;;;;;;5.63;1.02;;;13.70;99.90;;;;;;4973582;29;20029;-93
2021/10/06 09:46:46;;;;;;;8.70;1.13;;;13.60;99.90;;;;;;4967844;29;20024;-93
2021/10/06 09:49:22;;;;;;;4.07;0.70;;;13.30;99.90;;;;;;4961866;29;20031;-95
2021/10/06 09:51:48;;;;;;;5.10;0.85;;;13.30;99.90;;;;;;4958287;29;20121;-95
2021/10/06 09:54:14;;;;;;;8.60;1.08;;;13.30;99.90;;;;;;4957477;29;20122;-95
2021/10/06 09:56:43;;;;;;;2.45;0.77;;;13.30;99.90;;;;;;4959966;29;20078;-96
2021/10/06 09:59:14;;;;;;;4.15;0.90;;;13.50;99.90;;;;;;4957849;29;20108;-95
2021/10/06 10:01:42;;;;;;;3.05;0.85;;;13.30;99.90;;;;;;4956390;28;20024;-95
2021/10/06 10:04:13;;;;;;;3.83;1.00;;;13.20;99.90;;;;;;4965220;29;20030;-94
2021/10/06 10:06:39;;;;;;;5.60;1.08;;;13.20;99.90;;;;;;4963637;29;20019;-94
2021/10/06 10:09:08;;;;;;;2.33;0.60;;;13.50;99.90;;;;;;4964360;29;20070;-93
2021/10/06 10:11:39;;;;;;;3.13;0.70;;;13.80;99.90;;;;;;4964769;29;20027;-95
2021/10/06 10:14:07;;;;;;;4.68;1.02;;;14.00;99.90;;;;;;4969130;29;20030;-96
2021/10/06 10:16:36;;;;;;;9.15;1.10;;;14.10;99.90;;;;;;4967321;29;20031;-95
2021/10/06 10:19:11;;;;;;;5.57;1.13;;;14.40;99.90;;;;;;4962816;29;20055;-95
2021/10/06 10:21:43;;;;;;;3.67;0.80;;;15.40;99.90;;;;;;4966353;29;20019;-95
2021/10/06 10:24:29;;;;;;;4.43;0.80;;;16.30;99.90;;;;;;4959885;29;20034;-91
2021/10/06 10:27:06;;;;;;;3.78;0.75;;;16.50;99.90;;;;;;4959089;29;20388;-95
2021/10/06 10:29:47;;;;;;;5.35;0.85;;;16.40;99.90;;;;;;4962631;29;20344;-95
2021/10/06 10:32:23;;;;;;;4.68;0.82;;;16.70;99.90;;;;;;4960760;29;20023;-95
2021/10/06 10:35:06;;;;;;;8.13;1.10;;;16.80;99.90;;;;;;4964997;29;20031;-95
2021/10/06 10:40:36;;;;;;;7.32;1.10;;;15.90;99.90;;;;;;4959350;29;20101;-94
2021/10/06 10:43:24;;;;;;;5.03;1.27;;;15.30;99.90;;;;;;4946392;29;20411;-96
2021/10/06 10:46:11;;;;;;;4.97;0.90;;;15.20;99.90;;;;;;4960766;28;20031;-92
2021/10/06 10:49:05;;;;;;;6.55;1.02;;;15.60;99.90;;;;;;4964138;29;20038;-91
2021/10/06 10:51:41;;;;;;;3.13;0.82;;;16.90;99.90;;;;;;4956030;29;20035;-92
2021/10/06 10:54:10;;;;;;;4.43;0.88;;;16.50;99.90;;;;;;4957591;29;20035;-93
2021/10/06 10:56:45;;;;;;;4.57;1.00;;;15.90;99.90;;;;;;4958216;29;20042;-94
2021/10/06 10:59:18;;;;;;;4.00;0.80;;;15.30;99.90;;;;;;4959963;29;20034;-95
2021/10/06 11:01:50;;;;;;;2.45;0.55;;;15.30;99.90;;;;;;4960739;29;20074;-94
2021/10/06 11:04:28;;;;;;;7.07;1.50;;;15.30;99.90;;;;;;4959653;29;20027;-94
2021/10/06 11:07:11;;;;;;;6.88;1.20;;;15.00;99.90;;;;;;4959316;29;20038;-94
2021/10/06 11:09:39;;;;;;;6.22;1.70;;;15.10;99.90;;;;;;4957853;29;20031;-94
2021/10/06 11:12:05;;;;;;;3.58;1.02;;;14.80;99.90;;;;;;4958661;29;20027;-95
2021/10/06 11:14:42;;;;;;;5.25;1.55;;;14.40;99.90;;;;;;4958317;28;20038;-92
2021/10/06 11:17:14;;;;;;;6.05;1.10;;;14.50;99.90;;;;;;4958303;29;20033;-95
2021/10/06 11:19:50;;;;;;;2.00;0.65;;;14.70;99.90;;;;;;4959060;29;20047;-93
2021/10/06 11:22:22;;;;;;;4.38;0.70;;;14.50;99.90;;;;;;4958164;29;20548;-93
2021/10/06 11:24:58;;;;;;;3.33;0.63;;;14.20;99.90;;;;;;4957960;29;20030;-91
2021/10/06 11:27:25;;;;;;;2.25;0.50;;;14.20;99.90;;;;;;4958499;29;20023;-88
2021/10/06 11:29:52;;;;;;;5.75;0.70;;;14.50;99.90;;;;;;4959913;29;20034;-90
2021/10/06 11:32:19;;;;;;;3.20;0.63;;;14.60;99.90;;;;;;4965072;29;20055;-94
2021/10/06 11:34:53;;;;;;;6.57;0.95;;;14.50;99.90;;;;;;4975041;29;20031;-94
2021/10/06 11:37:27;;;;;;;5.80;0.93;;;14.40;99.90;;;;;;4972294;29;20390;-93
2021/10/06 11:39:53;;;;;;;3.15;0.80;;;14.30;99.90;;;;;;4959824;28;20039;-95
2021/10/06 11:42:29;;;;;;;2.65;0.70;;;14.00;99.90;;;;;;4959146;29;20024;-95
2021/10/06 11:44:55;;;;;;;5.32;1.02;;;13.80;99.90;;;;;;4958171;29;20031;-91
2021/10/06 11:47:21;;;;;;;3.00;0.75;;;13.50;99.90;;;;;;4957090;29;20023;-93
2021/10/06 11:49:51;;;;;;;3.15;0.60;;;13.60;99.90;;;;;;4956191;29;20074;-90
2021/10/06 11:52:19;;;;;;;3.70;0.80;;;13.40;99.90;;;;;;4956319;29;20413;-91
2021/10/06 11:54:46;;;;;;;6.68;0.80;;;13.20;99.90;;;;;;4955948;29;20154;-89
2021/10/06 11:57:13;;;;;;;6.55;0.70;;;13.20;99.90;;;;;;4955768;29;20059;-91
2021/10/06 11:59:42;;;;;;;2.65;0.40;;;13.00;99.90;;;;;;4956377;29;20119;-91
2021/10/06 12:02:10;;;;;;;4.68;0.85;;;13.20;99.90;;;;;;4955582;29;20042;-93
2021/10/06 12:04:47;;;;;;;2.20;0.47;;;13.40;99.90;;;;;;4955679;29;20110;-93
2021/10/06 12:07:15;;;;;;;3.42;0.50;;;14.70;99.90;;;;;;4955762;29;20074;-94
2021/10/06 12:09:49;;;;;;;2.75;0.73;;;16.80;99.90;;;;;;4955997;29;20038;-92
2021/10/06 12:12:26;;;;;;;1.67;0.40;;;17.90;99.90;;;;;;4958445;29;20471;-95
2021/10/06 12:15:07;;;;;;;2.63;0.90;;;18.80;99.90;;;;;;4959035;29;20027;-94
2021/10/06 12:17:34;;;;;;;2.60;0.90;;;20.20;99.90;;;;;;4963594;29;20036;-94
2021/10/06 12:20:03;;;;;;;2.20;0.88;;;21.40;99.90;;;;;;4956047;29;20054;-91
2021/10/06 12:22:32;;;;;;;2.15;0.60;;;21.30;99.90;;;;;;4957481;29;20019;-94
2021/10/06 12:24:59;;;;;;;4.05;0.70;;;21.10;99.90;;;;;;4956288;28;20030;-95
2021/10/06 12:27:33;;;;;;;1.65;0.80;;;20.60;99.90;;;;;;4957522;29;20024;-94
2021/10/06 12:30:07;;;;;;;3.83;0.50;;;22.10;99.90;;;;;;4965097;28;20039;-96
2021/10/06 12:32:33;;;;;;;3.50;0.68;;;21.90;99.90;;;;;;4957888;29;20023;-93
2021/10/06 12:35:07;;;;;;;3.25;0.75;;;21.10;99.90;;;;;;4956834;29;20027;-94
2021/10/06 12:37:33;;;;;;;;;;;20.00;99.90;;;;;;4956089;28;20483;-92
2021/10/06 12:39:58;;;;;;;3.22;0.60;;;18.90;99.90;;;;;;4956533;29;19916;-95
2021/10/06 12:42:24;;;;;;;3.53;0.82;;;18.20;99.90;;;;;;4958271;28;20031;-93
2021/10/06 12:44:50;;;;;;;5.13;1.50;;;17.90;99.90;;;;;;4959029;29;20477;-93
2021/10/06 12:47:19;;;;;;;4.25;0.80;;;17.10;99.90;;;;;;4957857;29;20024;-94
2021/10/06 12:49:55;;;;;;;2.67;0.52;;;16.40;99.90;;;;;;4957220;29;20407;-96
2021/10/06 12:52:25;;;;;;;3.85;0.70;;;16.10;99.90;;;;;;4941549;29;20042;-94
2021/10/06 12:55:08;;;;;;;3.22;0.77;;;15.90;99.90;;;;;;4956978;29;20487;-95